createdAt,value
2022-11-17T00:01:17.195Z,3.20
2022-11-17T00:03:43.686Z,2.77
2022-11-17T00:06:10.167Z,2.93
2022-11-17T00:08:36.663Z,3.07
2022-11-17T00:11:03.260Z,3.00
2022-11-17T00:13:48.440Z,3.10
2022-11-17T00:16:18.234Z,2.87
2022-11-17T00:19:03.324Z,3.10
2022-11-17T00:21:29.984Z,3.00
2022-11-17T00:23:56.494Z,2.80
2022-11-17T00:26:27.907Z,2.77
2022-11-17T00:28:55.507Z,2.60
2022-11-17T00:31:40.765Z,2.87
2022-11-17T00:34:07.529Z,3.03
2022-11-17T00:36:42.418Z,2.97
2022-11-17T00:39:09.247Z,2.80
2022-11-17T00:41:35.945Z,2.67
2022-11-17T00:44:02.543Z,2.70
2022-11-17T00:46:29.135Z,2.90
2022-11-17T00:48:55.739Z,2.80
2022-11-17T00:51:22.352Z,3.03
2022-11-17T00:53:49.427Z,3.00
2022-11-17T00:56:16.348Z,2.97
2022-11-17T00:58:42.911Z,2.33
2022-11-17T01:01:09.558Z,2.80
2022-11-17T01:03:36.676Z,2.80
2022-11-17T01:06:07.532Z,2.60
2022-11-17T01:08:34.619Z,2.80
2022-11-17T01:11:06.288Z,2.83
2022-11-17T01:13:33.205Z,2.80
2022-11-17T01:16:10.463Z,2.87
2022-11-17T01:18:36.997Z,2.40
2022-11-17T01:21:14.275Z,2.90
2022-11-17T01:23:42.021Z,2.90
2022-11-17T01:26:13.097Z,2.73
2022-11-17T01:28:39.831Z,2.83
2022-11-17T01:31:13.687Z,2.47
2022-11-17T01:33:40.359Z,2.60
2022-11-17T01:36:09.009Z,2.47
2022-11-17T01:38:35.572Z,2.80
2022-11-17T01:41:03.376Z,2.87
2022-11-17T01:43:37.273Z,2.60
2022-11-17T01:46:04.360Z,2.47
2022-11-17T01:48:30.884Z,2.60
2022-11-17T01:50:57.448Z,2.50
2022-11-17T01:53:24.126Z,3.03
2022-11-17T01:55:57.474Z,2.50
2022-11-17T01:58:29.009Z,2.70
2022-11-17T02:00:55.589Z,2.60
2022-11-17T02:03:22.177Z,2.27
2022-11-17T02:05:57.855Z,2.50
2022-11-17T02:08:25.619Z,2.90
2022-11-17T02:10:52.172Z,2.60
2022-11-17T02:13:20.225Z,2.57
2022-11-17T02:15:46.868Z,2.90
2022-11-17T02:18:13.779Z,2.87
2022-11-17T02:21:22.321Z,2.57
2022-11-17T02:23:52.010Z,2.67
2022-11-17T02:26:33.502Z,2.60
2022-11-17T02:29:24.291Z,2.73
2022-11-17T02:31:55.964Z,2.73
2022-11-17T02:34:34.608Z,2.93
2022-11-17T02:37:30.561Z,2.97
2022-11-17T02:40:13.901Z,2.60
2022-11-17T02:43:01.039Z,2.57
2022-11-17T02:45:40.312Z,2.57
2022-11-17T02:48:11.779Z,2.43
2022-11-17T02:50:38.605Z,2.60
2022-11-17T02:53:05.120Z,2.50
2022-11-17T02:55:35.006Z,2.53
2022-11-17T02:58:01.531Z,2.57
2022-11-17T03:00:28.185Z,2.53
2022-11-17T03:03:03.901Z,2.33
2022-11-17T03:05:33.397Z,2.70
2022-11-17T03:08:13.559Z,2.70
2022-11-17T03:10:58.518Z,2.47
2022-11-17T03:13:32.945Z,2.87
2022-11-17T03:16:21.442Z,2.70
2022-11-17T03:19:10.264Z,2.87
2022-11-17T03:21:41.157Z,2.50
2022-11-17T03:24:18.425Z,2.60
2022-11-17T03:26:50.268Z,2.40
2022-11-17T03:29:18.247Z,2.60
2022-11-17T03:31:45.488Z,2.50
2022-11-17T03:34:14.214Z,2.30
2022-11-17T03:36:43.331Z,2.33
2022-11-17T03:39:23.815Z,2.67
2022-11-17T03:41:51.278Z,2.80
2022-11-17T03:44:17.940Z,2.50
2022-11-17T03:46:44.491Z,2.40
2022-11-17T03:49:29.754Z,2.50
2022-11-17T03:51:56.287Z,2.60
2022-11-17T03:54:22.835Z,2.80
2022-11-17T03:56:57.865Z,2.53
2022-11-17T03:59:30.607Z,2.93
2022-11-17T04:01:57.131Z,2.60
2022-11-17T04:07:20.030Z,2.70
2022-11-17T04:09:47.557Z,2.80
2022-11-17T04:15:33.013Z,2.60
2022-11-17T04:23:26.243Z,2.70
2022-11-17T04:26:16.227Z,2.60
2022-11-17T04:29:06.194Z,2.60
2022-11-17T04:31:33.370Z,2.40
2022-11-17T04:34:15.935Z,2.80
2022-11-17T04:36:46.151Z,2.50
2022-11-17T04:39:25.621Z,2.70
2022-11-17T04:41:57.550Z,2.77
2022-11-17T04:44:25.722Z,2.43
2022-11-17T04:46:53.251Z,2.20
2022-11-17T04:52:03.640Z,2.60
2022-11-17T04:54:31.746Z,2.63
2022-11-17T05:02:22.148Z,2.60
2022-11-17T05:04:57.924Z,2.63
2022-11-17T05:07:24.870Z,2.50
2022-11-17T05:09:51.823Z,2.70
2022-11-17T05:12:38.312Z,2.57
2022-11-17T05:15:05.901Z,2.40
2022-11-17T05:17:42.636Z,2.27
2022-11-17T05:23:24.164Z,2.47
2022-11-17T05:25:55.641Z,2.50
2022-11-17T05:28:22.468Z,2.70
2022-11-17T05:30:49.524Z,2.20
2022-11-17T05:33:16.504Z,2.40
2022-11-17T05:38:31.918Z,2.70
2022-11-17T05:40:59.379Z,2.43
2022-11-17T05:43:26.396Z,2.50
2022-11-17T05:45:53.661Z,2.90
2022-11-17T05:48:20.733Z,2.47
2022-11-17T05:50:47.671Z,2.43
2022-11-17T05:57:10.400Z,2.30
2022-11-17T05:59:48.576Z,2.30
2022-11-17T06:02:26.760Z,2.20
2022-11-17T06:04:53.390Z,2.20
2022-11-17T06:07:20.237Z,2.30
2022-11-17T06:09:47.253Z,2.40
2022-11-17T06:12:15.567Z,2.17
2022-11-17T06:14:44.144Z,2.60
2022-11-17T06:17:25.353Z,2.63
2022-11-17T06:19:56.675Z,2.70
2022-11-17T06:22:25.185Z,2.30
2022-11-17T06:24:51.850Z,2.77
2022-11-17T06:27:18.589Z,3.10
2022-11-17T06:29:45.382Z,3.77
2022-11-17T06:32:15.430Z,4.43
2022-11-17T06:34:42.923Z,4.70
2022-11-17T06:37:11.320Z,4.97
2022-11-17T06:39:37.927Z,5.00
2022-11-17T06:42:04.505Z,5.20
2022-11-17T06:44:31.030Z,4.63
2022-11-17T06:46:57.578Z,4.90
2022-11-17T06:49:24.212Z,4.70
2022-11-17T06:51:50.797Z,4.90
2022-11-17T06:54:17.349Z,5.07
2022-11-17T06:56:44.312Z,4.70
2022-11-17T06:59:10.969Z,4.50
2022-11-17T07:01:37.789Z,4.60
2022-11-17T07:04:04.511Z,4.60
2022-11-17T07:06:31.963Z,4.40
2022-11-17T07:08:58.550Z,4.53
2022-11-17T07:11:25.150Z,4.40
2022-11-17T07:13:51.714Z,4.20
2022-11-17T07:16:23.451Z,4.27
2022-11-17T07:18:51.014Z,3.80
2022-11-17T07:21:18.246Z,4.60
2022-11-17T07:23:45.879Z,5.60
2022-11-17T07:26:12.634Z,6.07
2022-11-17T07:28:39.358Z,5.20
2022-11-17T07:31:07.513Z,5.07
2022-11-17T07:33:34.474Z,5.00
2022-11-17T07:36:05.717Z,4.60
2022-11-17T07:38:34.318Z,4.80
2022-11-17T07:41:01.138Z,4.70
2022-11-17T07:43:28.035Z,4.53
2022-11-17T07:45:54.803Z,4.13
2022-11-17T07:48:21.411Z,4.23
2022-11-17T07:50:48.254Z,4.53
2022-11-17T07:53:14.956Z,4.20
2022-11-17T07:55:41.625Z,4.17
2022-11-17T07:58:08.356Z,4.40
2022-11-17T08:00:35.022Z,4.00
2022-11-17T08:03:03.590Z,3.63
2022-11-17T08:05:32.215Z,4.67
2022-11-17T08:07:59.116Z,4.73
2022-11-17T08:10:27.220Z,4.37
2022-11-17T08:12:54.268Z,4.43
2022-11-17T08:15:22.286Z,4.43
2022-11-17T08:17:53.537Z,3.87
2022-11-17T08:20:20.395Z,3.90
2022-11-17T08:22:47.370Z,4.10
2022-11-17T08:25:14.325Z,3.63
2022-11-17T08:27:42.434Z,3.50
2022-11-17T08:30:10.789Z,4.30
2022-11-17T08:32:37.485Z,3.60
2022-11-17T08:35:05.807Z,4.80
2022-11-17T08:37:32.482Z,4.60
2022-11-17T08:39:59.111Z,4.77
2022-11-17T08:42:25.686Z,5.30
2022-11-17T08:44:52.329Z,5.20
2022-11-17T08:47:18.977Z,5.10
2022-11-17T08:49:45.613Z,4.67
2022-11-17T08:52:12.263Z,4.73
2022-11-17T08:54:38.982Z,4.60
2022-11-17T08:57:05.619Z,4.67
2022-11-17T08:59:32.211Z,3.93
2022-11-17T09:01:58.773Z,3.80
2022-11-17T09:04:25.441Z,4.10
2022-11-17T09:06:52.045Z,4.10
2022-11-17T09:09:18.803Z,4.20
2022-11-17T09:11:45.548Z,4.03
2022-11-17T09:14:12.296Z,3.70
2022-11-17T09:16:38.910Z,3.70
2022-11-17T09:19:05.680Z,4.00
2022-11-17T09:21:33.773Z,3.70
2022-11-17T09:24:00.488Z,3.90
2022-11-17T09:26:27.156Z,3.80
2022-11-17T09:28:53.935Z,3.80
2022-11-17T09:31:21.752Z,3.70
2022-11-17T09:33:48.722Z,3.37
2022-11-17T09:36:16.083Z,3.40
2022-11-17T09:38:42.801Z,3.13
2022-11-17T09:41:28.380Z,3.47
2022-11-17T09:44:19.501Z,3.23
2022-11-17T09:47:20.717Z,3.13
2022-11-17T09:50:03.284Z,3.20
2022-11-17T09:52:56.827Z,2.83
2022-11-17T09:55:38.883Z,3.00
2022-11-17T09:58:11.981Z,3.07
2022-11-17T10:00:39.316Z,3.10
2022-11-17T10:03:23.415Z,3.00
2022-11-17T10:05:50.407Z,2.90
2022-11-17T10:08:18.861Z,3.00
2022-11-17T10:10:50.243Z,2.97
2022-11-17T10:13:32.864Z,2.80
2022-11-17T10:16:12.391Z,2.83
2022-11-17T10:18:39.055Z,2.87
2022-11-17T10:21:06.799Z,3.03
2022-11-17T10:23:44.435Z,2.70
2022-11-17T10:26:13.803Z,3.10
2022-11-17T10:28:40.563Z,2.70
2022-11-17T10:31:14.980Z,2.60
2022-11-17T10:33:49.627Z,2.63
2022-11-17T10:36:29.233Z,2.43
2022-11-17T10:38:57.187Z,2.67
2022-11-17T10:41:27.640Z,2.77
2022-11-17T10:43:56.273Z,2.70
2022-11-17T10:46:24.080Z,2.60
2022-11-17T10:48:54.514Z,2.93
2022-11-17T10:51:20.940Z,2.80
2022-11-17T10:54:10.642Z,2.77
2022-11-17T10:56:44.819Z,2.83
2022-11-17T10:59:26.607Z,2.53
2022-11-17T11:01:53.188Z,2.67
2022-11-17T11:04:46.235Z,2.33
2022-11-17T11:07:22.692Z,2.37
2022-11-17T11:09:54.707Z,2.50
2022-11-17T11:12:36.756Z,2.40
2022-11-17T11:15:03.408Z,2.23
2022-11-17T11:17:30.067Z,2.50
2022-11-17T11:19:56.626Z,2.30
2022-11-17T11:22:52.481Z,2.33
2022-11-17T11:25:31.293Z,2.60
2022-11-17T11:28:20.017Z,2.37
2022-11-17T11:31:06.282Z,2.37
2022-11-17T11:33:36.730Z,2.27
2022-11-17T11:36:15.138Z,2.47
2022-11-17T11:38:55.153Z,2.30
2022-11-17T11:41:27.667Z,2.40
2022-11-17T11:44:13.163Z,2.23
2022-11-17T11:47:37.115Z,2.20
2022-11-17T11:50:10.155Z,2.50
2022-11-17T11:52:38.625Z,2.10
2022-11-17T11:55:30.590Z,2.30
2022-11-17T11:58:18.655Z,2.10
2022-11-17T12:00:45.213Z,2.60
2022-11-17T12:03:24.149Z,2.10
2022-11-17T12:06:37.290Z,2.10
2022-11-17T12:09:22.954Z,2.03
2022-11-17T12:12:01.666Z,2.23
2022-11-17T12:14:35.998Z,2.07
2022-11-17T12:17:23.566Z,1.87
2022-11-17T12:20:07.489Z,1.83
2022-11-17T12:22:37.024Z,2.30
2022-11-17T12:25:12.893Z,2.50
2022-11-17T12:27:39.545Z,2.40
2022-11-17T12:30:26.931Z,2.23
2022-11-17T12:32:53.806Z,2.20
2022-11-17T12:35:33.654Z,2.80
2022-11-17T12:38:15.641Z,2.50
2022-11-17T12:40:45.003Z,2.00
2022-11-17T12:43:25.043Z,2.43
2022-11-17T12:46:23.799Z,2.20
2022-11-17T12:48:59.727Z,2.10
2022-11-17T12:51:45.067Z,2.13
2022-11-17T12:54:35.572Z,2.10
2022-11-17T12:57:05.108Z,1.80
2022-11-17T12:59:37.387Z,2.00
2022-11-17T13:02:10.084Z,2.00
2022-11-17T13:05:01.183Z,2.37
2022-11-17T13:07:27.876Z,2.00
2022-11-17T13:09:57.092Z,1.97
2022-11-17T13:12:27.863Z,2.10
2022-11-17T13:14:58.471Z,2.30
2022-11-17T13:17:30.832Z,2.20
2022-11-17T13:20:27.314Z,2.13
2022-11-17T13:23:14.698Z,2.17
2022-11-17T13:25:41.587Z,2.00
2022-11-17T13:28:27.294Z,1.87
2022-11-17T13:30:53.862Z,2.03
2022-11-17T13:33:22.093Z,1.93
2022-11-17T13:35:48.633Z,2.20
2022-11-17T13:38:15.034Z,2.10
2022-11-17T13:40:41.661Z,1.97
2022-11-17T13:43:11.758Z,1.90
2022-11-17T13:45:38.322Z,1.90
2022-11-17T13:48:05.014Z,2.20
2022-11-17T13:50:31.468Z,2.00
2022-11-17T13:53:23.549Z,2.10
2022-11-17T13:55:50.190Z,1.67
2022-11-17T13:58:28.364Z,2.10
2022-11-17T14:00:57.386Z,1.90
2022-11-17T14:03:44.241Z,2.13
2022-11-17T14:06:12.292Z,2.00
2022-11-17T14:08:40.021Z,1.80
2022-11-17T14:11:09.601Z,2.10
2022-11-17T14:13:47.036Z,2.00
2022-11-17T14:16:27.212Z,1.80
2022-11-17T14:19:02.150Z,1.80
2022-11-17T14:21:29.113Z,2.17
2022-11-17T14:24:04.464Z,1.80
2022-11-17T14:26:31.130Z,1.80
2022-11-17T14:29:02.525Z,1.97
2022-11-17T14:31:30.699Z,1.70
2022-11-17T14:33:57.606Z,1.80
2022-11-17T14:36:24.226Z,1.80
2022-11-17T14:38:50.819Z,2.10
2022-11-17T14:41:18.143Z,1.60
2022-11-17T14:43:44.705Z,1.90
2022-11-17T14:46:24.047Z,1.97
2022-11-17T14:48:50.787Z,1.80
2022-11-17T14:51:17.331Z,1.83
2022-11-17T14:53:44.526Z,1.90
2022-11-17T14:56:12.862Z,1.70
2022-11-17T14:58:39.405Z,1.83
2022-11-17T15:01:17.598Z,1.80
2022-11-17T15:03:44.603Z,1.90
2022-11-17T15:06:15.197Z,1.80
2022-11-17T15:08:45.077Z,1.90
2022-11-17T15:11:16.401Z,2.33
2022-11-17T15:13:43.473Z,2.50
2022-11-17T15:16:10.042Z,1.93
2022-11-17T15:18:36.646Z,2.10
2022-11-17T15:21:04.709Z,2.30
2022-11-17T15:23:31.379Z,2.23
2022-11-17T15:25:58.005Z,2.00
2022-11-17T15:28:30.099Z,2.00
2022-11-17T15:30:56.963Z,2.13
2022-11-17T15:33:23.606Z,2.00
2022-11-17T15:36:02.799Z,2.23
2022-11-17T15:38:29.507Z,1.93
2022-11-17T15:40:56.114Z,2.03
2022-11-17T15:43:26.734Z,2.00
2022-11-17T15:45:59.197Z,2.30
2022-11-17T15:48:25.750Z,2.50
2022-11-17T15:51:05.471Z,3.10
2022-11-17T15:53:33.130Z,2.60
2022-11-17T15:56:03.846Z,2.57
2022-11-17T15:58:30.814Z,2.80
2022-11-17T16:01:08.860Z,2.83
2022-11-17T16:03:35.603Z,2.67
2022-11-17T16:06:02.144Z,2.60
2022-11-17T16:08:28.722Z,2.70
2022-11-17T16:10:55.665Z,2.67
2022-11-17T16:13:22.200Z,2.40
2022-11-17T16:15:49.159Z,2.47
2022-11-17T16:18:15.798Z,2.80
2022-11-17T16:20:42.348Z,2.47
2022-11-17T16:23:08.938Z,2.40
2022-11-17T16:25:42.251Z,2.30
2022-11-17T16:28:08.873Z,2.37
2022-11-17T16:30:35.923Z,2.43
2022-11-17T16:33:04.052Z,2.37
2022-11-17T16:35:30.846Z,2.70
2022-11-17T16:37:57.398Z,2.67
2022-11-17T16:40:23.993Z,2.40
2022-11-17T16:42:50.527Z,2.73
2022-11-17T16:45:17.054Z,2.30
2022-11-17T16:47:43.563Z,2.13
2022-11-17T16:50:10.305Z,2.23
2022-11-17T16:52:36.876Z,2.23
2022-11-17T16:55:05.092Z,2.10
2022-11-17T16:57:32.104Z,2.50
2022-11-17T16:59:58.724Z,2.37
2022-11-17T17:02:26.047Z,2.30
2022-11-17T17:04:52.625Z,2.30
2022-11-17T17:07:19.277Z,2.60
2022-11-17T17:09:45.951Z,2.13
2022-11-17T17:12:12.936Z,2.20
2022-11-17T17:14:39.499Z,2.17
2022-11-17T17:17:06.130Z,2.10
2022-11-17T17:19:32.725Z,2.30
2022-11-17T17:21:59.300Z,2.03
2022-11-17T17:24:25.984Z,2.20
2022-11-17T17:26:52.544Z,2.33
2022-11-17T17:29:19.440Z,2.30
2022-11-17T17:31:46.052Z,2.37
2022-11-17T17:34:13.131Z,2.57
2022-11-17T17:36:40.022Z,2.53
2022-11-17T17:39:06.785Z,2.07
2022-11-17T17:41:35.145Z,2.00
2022-11-17T17:44:05.867Z,2.07
2022-11-17T17:46:34.613Z,2.10
2022-11-17T17:49:01.223Z,2.00
2022-11-17T17:51:28.256Z,1.97
2022-11-17T17:53:55.951Z,2.20
2022-11-17T17:56:22.592Z,2.10
2022-11-17T17:58:50.672Z,2.10
2022-11-17T18:01:25.025Z,2.07
2022-11-17T18:03:53.815Z,2.10
2022-11-17T18:06:21.487Z,2.30
2022-11-17T18:08:48.460Z,1.87
2022-11-17T18:11:17.068Z,2.00
2022-11-17T18:13:44.464Z,1.70
2022-11-17T18:16:16.053Z,2.10
2022-11-17T18:18:43.935Z,2.07
2022-11-17T18:21:11.660Z,2.07
2022-11-17T18:23:38.662Z,2.00
2022-11-17T18:26:21.991Z,2.30
2022-11-17T18:28:55.578Z,1.80
2022-11-17T18:31:22.830Z,2.07
2022-11-17T18:33:56.271Z,2.10
2022-11-17T18:36:23.059Z,2.03
2022-11-17T18:38:50.979Z,1.70
2022-11-17T18:41:17.728Z,2.13
2022-11-17T18:43:44.365Z,2.20
2022-11-17T18:46:13.222Z,1.97
2022-11-17T18:48:40.959Z,2.00
2022-11-17T18:51:24.281Z,2.00
2022-11-17T18:53:51.785Z,1.90
2022-11-17T18:56:20.042Z,2.07
2022-11-17T18:58:46.587Z,2.10
2022-11-17T19:01:23.642Z,2.20
2022-11-17T19:03:54.041Z,2.03
2022-11-17T19:06:21.756Z,2.30
2022-11-17T19:08:48.516Z,2.13
2022-11-17T19:11:15.667Z,2.43
2022-11-17T19:13:42.322Z,1.80
2022-11-17T19:16:16.207Z,1.70
2022-11-17T19:18:43.167Z,1.90
2022-11-17T19:21:16.112Z,2.10
2022-11-17T19:23:48.027Z,2.10
2022-11-17T19:26:25.141Z,2.00
2022-11-17T19:28:55.614Z,1.97
2022-11-17T19:31:22.161Z,2.03
2022-11-17T19:33:49.689Z,1.93
2022-11-17T19:36:25.862Z,2.07
2022-11-17T19:38:54.449Z,1.90
2022-11-17T19:41:23.110Z,2.60
2022-11-17T19:43:54.204Z,2.07
2022-11-17T19:46:23.121Z,2.07
2022-11-17T19:48:49.861Z,2.00
2022-11-17T19:51:28.479Z,1.93
2022-11-17T19:53:56.430Z,2.03
2022-11-17T19:56:23.883Z,2.10
2022-11-17T19:58:55.077Z,1.80
2022-11-17T20:01:27.738Z,2.20
2022-11-17T20:03:56.563Z,2.00
2022-11-17T20:06:27.373Z,2.10
2022-11-17T20:09:00.434Z,2.03
2022-11-17T20:11:29.093Z,2.10
2022-11-17T20:13:55.917Z,2.27
2022-11-17T20:16:28.792Z,1.90
2022-11-17T20:19:01.168Z,1.93
2022-11-17T20:21:28.773Z,2.00
2022-11-17T20:23:56.734Z,2.30
2022-11-17T20:26:32.141Z,2.10
2022-11-17T20:28:58.867Z,1.90
2022-11-17T20:31:30.147Z,2.30
2022-11-17T20:33:58.224Z,2.47
2022-11-17T20:36:24.878Z,2.37
2022-11-17T20:38:54.524Z,2.10
2022-11-17T20:41:23.894Z,2.30
2022-11-17T20:43:51.672Z,2.10
2022-11-17T20:46:18.517Z,2.27
2022-11-17T20:48:47.393Z,2.20
2022-11-17T20:51:16.254Z,2.20
2022-11-17T20:53:43.212Z,2.20
2022-11-17T20:56:13.085Z,2.20
2022-11-17T20:58:40.091Z,2.10
2022-11-17T21:01:25.444Z,2.47
2022-11-17T21:03:52.209Z,2.67
2022-11-17T21:06:19.886Z,2.57
2022-11-17T21:08:52.844Z,2.47
2022-11-17T21:11:39.721Z,2.20
2022-11-17T21:14:07.283Z,2.30
2022-11-17T21:16:36.799Z,2.43
2022-11-17T21:19:03.751Z,2.50
2022-11-17T21:21:32.943Z,2.33
2022-11-17T21:24:06.244Z,2.30
2022-11-17T21:26:36.037Z,2.57
2022-11-17T21:29:06.389Z,2.50
2022-11-17T21:31:33.778Z,2.47
2022-11-17T21:34:05.275Z,2.53
2022-11-17T21:36:35.662Z,2.40
2022-11-17T21:39:02.473Z,2.70
2022-11-17T21:41:32.699Z,2.60
2022-11-17T21:44:00.241Z,2.53
2022-11-17T21:46:28.921Z,2.33
2022-11-17T21:49:00.186Z,2.40
2022-11-17T21:51:28.912Z,2.33
2022-11-17T21:53:56.748Z,2.30
2022-11-17T21:56:26.740Z,2.33
2022-11-17T21:58:55.064Z,2.37
2022-11-17T22:01:24.495Z,2.10
2022-11-17T22:03:51.235Z,1.97
2022-11-17T22:06:22.935Z,1.97
2022-11-17T22:08:52.895Z,2.20
2022-11-17T22:11:36.688Z,1.97
2022-11-17T22:14:13.655Z,1.90
2022-11-17T22:16:47.031Z,2.20
2022-11-17T22:19:14.607Z,2.10
2022-11-17T22:21:41.718Z,1.80
2022-11-17T22:24:12.503Z,1.93
2022-11-17T22:26:41.123Z,2.20
2022-11-17T22:29:12.977Z,2.00
2022-11-17T22:31:45.125Z,1.90
2022-11-17T22:34:12.478Z,1.90
2022-11-17T22:36:39.327Z,1.93
2022-11-17T22:39:09.146Z,2.00
2022-11-17T22:41:35.816Z,2.03
2022-11-17T22:44:02.611Z,1.80
2022-11-17T22:46:29.264Z,1.90
2022-11-17T22:48:56.119Z,1.70
2022-11-17T22:51:44.966Z,2.10
2022-11-17T22:54:17.697Z,1.90
2022-11-17T22:56:53.579Z,2.10
2022-11-17T22:59:27.329Z,1.90
2022-11-17T23:01:53.982Z,1.90
2022-11-17T23:04:22.340Z,1.90
2022-11-17T23:06:51.417Z,1.80
2022-11-17T23:09:20.138Z,1.87
2022-11-17T23:11:47.156Z,2.30
2022-11-17T23:14:14.193Z,1.73
2022-11-17T23:16:43.919Z,1.60
2022-11-17T23:19:16.450Z,1.60
2022-11-17T23:21:43.316Z,1.93
2022-11-17T23:24:17.045Z,1.90
2022-11-17T23:26:45.854Z,1.70
2022-11-17T23:29:15.613Z,1.73
2022-11-17T23:31:42.555Z,2.10
2022-11-17T23:34:10.360Z,2.00
2022-11-17T23:36:37.114Z,2.00
2022-11-17T23:39:11.849Z,1.87
2022-11-17T23:41:38.635Z,2.00
2022-11-17T23:44:08.867Z,2.13
2022-11-17T23:46:35.643Z,1.80
2022-11-17T23:49:03.721Z,1.90
2022-11-17T23:51:35.532Z,1.80
2022-11-17T23:54:05.386Z,1.80
2022-11-17T23:56:33.689Z,1.90
2022-11-17T23:59:00.516Z,2.10
